Latest Weather Observations for Holsworthy

IDN60801

Issued at 11:35 am EST Thursday 18 September 2014 (issued every 30 minutes, with the page automatically refreshed every 10 minutes)

About weather observations | Map of weather stations | Latest weather observations for NSW | Other Formats
Station Details ID: 066161 Name: HOLSWORTHY AERODROME AWS Lat: -33.99 Lon: 150.95 Height: 68.16 m
Data from the previous 72 hours. | See also: Recent months at Holsworthy
Date/Time
EST
Temp
°C
App
Temp
°C
Dew
Point
Rel
Hum
%
Delta-T
°C
Wind Press
QNH
hPa
Press
MSL
hPa
Rain
since 9 am
mm
Dir
 
Spd
km/h
Gust
km/h
Spd
kts
Gust
kts
18/11:30am 17.5 12.8 -1.7 27 8.0 SW 13 28 7 15 1018.1 1018.0 0.0
18/11:00am 17.2 12.4 0.4 32 7.3 SW 15 22 8 12 1018.2 1018.1 0.0
18/10:30am 16.1 10.6 -1.9 29 7.4 SSW 17 26 9 14 1018.5 1018.4 0.0
18/10:00am 15.9 11.0 -0.8 32 7.0 SW 15 28 8 15 1018.7 1018.6 0.0
18/09:30am 15.5 10.4 0.5 36 6.5 WSW 17 24 9 13 1018.8 1018.7 0.0
18/09:00am 14.7 9.1 1.3 40 5.8 W 20 32 11 17 1018.8 1018.7 0.0
18/08:30am 13.6 8.7 1.9 45 5.1 W 17 24 9 13 1018.8 1018.7 0.0
18/08:00am 12.9 8.1 2.5 49 4.6 WSW 17 26 9 14 1018.3 1018.2 0.0
18/07:30am 11.2 7.7 3.5 59 3.4 WSW 11 13 6 7 1018.2 1018.1 0.0
18/07:00am 9.4 6.3 3.4 66 2.6 WSW 9 13 5 7 1018.1 1018.0 0.0
18/06:30am 8.6 5.0 2.8 67 2.5 WSW 11 13 6 7 1017.7 1017.6 0.0
18/06:00am 7.7 4.1 2.8 71 2.1 W 11 13 6 7 1017.2 1017.1 0.0
18/05:30am 6.9 4.0 2.4 73 1.9 WSW 7 11 4 6 1016.8 1016.7 0.0
18/05:00am 7.5 4.6 2.6 71 2.0 WSW 7 11 4 6 1016.6 1016.5 0.0
18/04:30am 8.2 5.2 2.0 65 2.6 WSW 7 9 4 5 1016.4 1016.3 0.0
18/04:00am 10.8 7.5 2.4 56 3.6 SW 9 15 5 8 1016.1 1016.0 0.0
18/03:30am 11.0 7.7 2.6 56 3.6 SSW 9 13 5 7 1016.0 1015.9 0.0
18/03:00am 11.4 7.7 2.4 54 3.9 SW 11 15 6 8 1015.7 1015.6 0.0
18/02:30am 11.7 7.6 2.5 53 4.0 SW 13 20 7 11 1015.5 1015.4 0.0
18/02:00am 12.0 7.2 2.5 52 4.1 SW 17 28 9 15 1015.5 1015.4 0.0
18/01:30am 11.0 6.6 2.6 56 3.6 WSW 15 20 8 11 1015.3 1015.2 0.0
18/01:00am 11.5 7.4 2.0 52 4.1 WSW 13 20 7 11 1015.4 1015.3 0.0
18/12:30am 11.1 7.0 2.4 55 3.7 WSW 13 19 7 10 1015.4 1015.3 0.0
18/12:00am 10.7 7.1 3.0 59 3.3 WSW 11 15 6 8 1015.1 1015.0 0.0
 
Date/Time
EST
Temp
°C
App
Temp
°C
Dew
Point
Rel
Hum
%
Delta-T
°C
Wind Press
QNH
hPa
Press
MSL
hPa
Rain
since 9 am
mm
Dir
 
Spd
km/h
Gust
km/h
Spd
kts
Gust
kts
17/11:30pm 11.2 7.6 3.0 57 3.6 W 11 15 6 8 1015.1 1015.0 0.0
17/11:00pm 11.9 9.1 3.2 55 3.8 WSW 7 11 4 6 1015.0 1014.9 0.0
17/10:30pm 12.5 9.8 3.5 54 4.0 W 7 11 4 6 1014.8 1014.7 0.0
17/10:00pm 12.9 9.4 3.6 53 4.2 W 11 20 6 11 1014.7 1014.6 0.0
17/09:30pm 13.6 10.2 3.9 52 4.4 WNW 11 15 6 8 1014.6 1014.5 0.0
17/09:00pm 13.0 10.4 4.2 55 4.0 W 7 9 4 5 1014.4 1014.3 0.0
17/08:30pm 13.7 11.2 3.8 51 4.5 WNW 6 19 3 10 1014.1 1014.1 0.0
17/08:00pm 13.6 11.0 3.4 50 4.6 WNW 6 9 3 5 1013.8 1013.8 0.0
17/07:30pm 15.0 12.2 3.2 45 5.4 W 7 13 4 7 1013.4 1013.4 0.0
17/07:00pm 15.8 11.8 2.9 42 5.9 W 13 19 7 10 1013.1 1013.1 0.0
17/06:30pm 16.4 11.6 2.4 39 6.3 W 17 24 9 13 1012.7 1012.7 0.0
17/06:00pm 16.9 10.7 2.1 37 6.7 WNW 24 37 13 20 1012.2 1012.2 0.0
17/05:30pm 17.8 12.9 1.7 34 7.2 W 17 28 9 15 1011.9 1011.9 0.0
17/05:00pm 18.8 13.5 1.8 32 7.7 W 19 32 10 17 1011.6 1011.6 0.0
17/04:30pm 19.3 12.2 1.3 30 8.1 WSW 28 41 15 22 1011.2 1011.2 0.0
17/04:00pm 19.6 12.8 1.1 29 8.4 W 26 39 14 21 1010.8 1010.8 0.0
17/03:30pm 19.4 13.4 0.9 29 8.3 W 22 35 12 19 1010.5 1010.5 0.0
17/03:00pm 19.7 12.3 1.7 30 8.2 W 30 48 16 26 1010.6 1010.6 0.0
17/02:41pm 19.5 12.4 1.5 30 8.2 WSW 28 46 15 25 1010.3 1010.3 0.0
17/02:30pm 19.6 13.4 2.0 31 8.1 W 24 37 13 20 1010.4 1010.4 0.0
17/02:00pm 19.9 13.0 2.7 32 8.0 W 28 43 15 23 1010.4 1010.4 0.0
17/01:46pm 20.1 13.3 2.9 32 8.1 W 28 48 15 26 1010.5 1010.5 0.0
17/01:30pm 19.8 12.6 3.1 33 7.9 WSW 30 44 16 24 1010.6 1010.6 0.0
17/01:17pm 19.8 12.4 1.7 30 8.3 W 30 52 16 28 1010.5 1010.5 0.0
17/01:00pm 20.2 13.0 3.0 32 8.1 W 30 41 16 22 1010.3 1010.3 0.0
17/12:30pm 20.0 13.7 1.4 29 8.5 W 24 39 13 21 1010.5 1010.5 0.0
17/12:00pm 19.8 13.6 2.2 31 8.1 W 24 39 13 21 1010.8 1010.8 0.0
17/11:30am 19.1 12.1 2.0 32 7.8 W 28 44 15 24 1011.0 1011.0 0.0
17/11:00am 18.8 12.7 3.0 35 7.4 WSW 24 43 13 23 1011.5 1011.5 0.0
17/10:30am 18.7 12.6 2.9 35 7.3 W 24 41 13 22 1011.6 1011.6 0.0
17/10:00am 18.0 11.1 2.3 35 7.2 WSW 28 44 15 24 1011.7 1011.7 0.0
17/09:30am 17.7 11.7 3.2 38 6.7 W 24 37 13 20 1012.0 1012.0 0.0
17/09:00am 17.0 11.6 4.7 44 5.9 W 22 37 12 20 1012.5 1012.5 -
17/08:30am 16.1 10.7 4.5 46 5.5 W 22 33 12 18 1012.4 1012.4 -
17/08:00am 15.3 10.0 4.9 50 4.9 W 22 35 12 19 1012.4 1012.4 -
17/07:30am 15.5 11.1 4.8 49 5.0 W 17 30 9 16 1012.4 1012.4 -
17/07:00am 14.6 10.3 5.1 53 4.5 W 17 30 9 16 1012.2 1012.2 -
17/06:30am 13.9 10.0 5.5 57 4.0 W 15 24 8 13 1011.7 1011.7 -
17/06:00am 13.8 10.4 5.7 58 3.8 W 13 20 7 11 1011.3 1011.3 -
17/05:30am 13.9 10.1 6.0 59 3.8 W 15 28 8 15 1010.8 1010.8 -
17/05:00am 13.8 10.2 6.9 63 3.4 W 15 24 8 13 1010.4 1010.4 -
17/04:30am 12.8 10.2 7.7 71 2.5 WNW 11 17 6 9 1009.8 1009.8 -
17/04:00am 12.9 10.7 8.0 72 2.4 W 9 13 5 7 1009.8 1009.8 -
17/03:30am 12.4 10.2 7.9 74 2.2 W 9 17 5 9 1009.6 1009.6 -
17/03:00am 12.1 9.9 7.8 75 2.1 WNW 9 15 5 8 1009.6 1009.6 0.0
17/02:30am 12.0 10.1 7.5 74 2.2 WNW 7 11 4 6 1009.7 1009.7 -
17/02:00am 12.4 10.5 7.5 72 2.4 WNW 7 11 4 6 1009.6 1009.6 -
17/01:30am 12.1 9.7 7.2 72 2.4 WNW 9 11 5 6 1009.9 1009.9 -
17/01:00am 12.0 10.0 7.1 72 2.4 WNW 7 11 4 6 1009.8 1009.8 -
17/12:30am 12.1 9.7 7.0 71 2.5 NW 9 13 5 7 1009.7 1009.7 -
17/12:00am 12.2 10.2 7.1 71 2.5 NW 7 9 4 5 1009.8 1009.8 -
 
Date/Time
EST
Temp
°C
App
Temp
°C
Dew
Point
Rel
Hum
%
Delta-T
°C
Wind Press
QNH
hPa
Press
MSL
hPa
Rain
since 9 am
mm
Dir
 
Spd
km/h
Gust
km/h
Spd
kts
Gust
kts
16/11:30pm 12.5 10.1 7.2 70 2.6 WNW 9 9 5 5 1009.7 1009.7 -
16/11:00pm 13.4 11.0 7.2 66 3.0 WNW 9 11 5 6 1009.7 1009.7 -
16/10:30pm 14.5 11.4 7.3 62 3.5 WNW 13 19 7 10 1009.7 1009.7 -
16/10:00pm 15.2 11.7 7.2 59 4.0 WNW 15 22 8 12 1009.7 1009.7 -
16/09:30pm 15.6 11.7 6.9 56 4.3 W 17 28 9 15 1009.9 1009.9 -
16/09:00pm 15.9 12.0 6.9 55 4.4 WSW 17 22 9 12 1010.0 1010.0 0.0
16/08:30pm 16.4 11.9 7.1 54 4.6 WSW 20 33 11 18 1010.1 1010.1 -
16/08:00pm 17.5 12.6 7.0 50 5.3 W 22 44 12 24 1009.6 1009.6 -
16/07:30pm 17.9 12.9 6.4 47 5.7 W 22 35 12 19 1009.6 1009.6 -
16/07:00pm 18.0 14.3 6.5 47 5.7 W 15 22 8 12 1009.1 1009.0 -
16/06:30pm 18.5 14.5 6.7 46 5.9 WNW 17 24 9 13 1008.5 1008.4 -
16/06:00pm 19.3 14.8 6.8 44 6.3 WNW 20 35 11 19 1008.0 1007.9 -
16/05:30pm 20.1 14.9 5.7 39 7.1 WNW 22 33 12 18 1007.3 1007.2 -
16/05:00pm 20.7 15.4 5.1 36 7.7 WNW 22 39 12 21 1006.8 1006.7 -
16/04:30pm 21.3 16.5 5.6 36 7.8 WNW 20 30 11 16 1006.3 1006.2 -
16/04:00pm 21.6 16.4 5.5 35 8.1 W 22 37 12 20 1006.2 1006.1 -
16/03:30pm 22.6 21.0 12.8 54 5.6 W 13 17 7 9 1005.9 1005.8 -
16/03:00pm 21.4 20.2 14.1 63 4.3 S 13 15 7 8 1005.8 1005.7 -
16/02:30pm 20.7 18.6 14.8 69 3.5 WSW 19 32 10 17 1005.8 1005.7 1.4
16/02:00pm 19.9 20.0 13.8 68 3.5 NW 6 11 3 6 1005.7 1005.6 1.4
16/01:30pm 20.4 18.6 13.4 64 4.0 N 15 20 8 11 1006.2 1006.1 1.4
16/01:00pm 21.1 20.3 14.0 64 4.1 N 11 17 6 9 1006.4 1006.3 1.4
16/12:30pm 20.8 21.2 15.4 71 3.2 NE 7 20 4 11 1007.1 1007.0 1.2
16/12:00pm 19.5 18.4 14.3 72 3.0 NE 13 20 7 11 1007.6 1007.5 1.2
16/11:30am 18.7 19.5 14.8 78 2.3 ENE 4 9 2 5 1008.7 1008.6 1.2
16/11:00am 17.5 17.8 14.6 83 1.7 NNW 6 11 3 6 1009.5 1009.5 1.2
16/10:30am 16.0 15.6 14.0 88 1.1 WNW 9 13 5 7 1010.2 1010.2 1.2
16/10:00am 15.7 15.2 13.7 88 1.1 W 9 17 5 9 1010.2 1010.2 1.2
16/09:30am 17.0 16.0 13.5 80 2.0 NW 11 19 6 10 1010.8 1010.8 0.0
16/09:00am 16.5 17.6 13.6 83 1.6 CALM 0 0 0 0 1010.3 1010.3 0.0
16/08:30am 15.8 15.1 13.3 85 1.4 NW 9 15 5 8 1011.2 1011.2 0.0
16/08:00am 15.7 14.9 13.0 84 1.5 E 9 17 5 9 1010.7 1010.7 0.0
16/07:30am 14.8 14.6 13.5 92 0.7 SSW 7 13 4 7 1012.1 1012.1 0.0
16/07:00am 13.8 13.4 12.9 94 0.5 SSW 7 11 4 6 1012.1 1012.1 0.0
16/06:30am 13.2 12.8 12.3 94 0.5 SSE 6 7 3 4 1011.8 1011.8 0.0
16/06:00am 13.0 12.3 11.9 93 0.6 W 7 9 4 5 1011.9 1011.9 0.0
16/05:30am 13.5 12.4 12.1 91 0.8 ESE 9 11 5 6 1011.9 1011.9 0.0
16/05:00am 13.4 12.0 12.3 93 0.6 SW 11 15 6 8 1012.7 1012.7 0.0
16/04:30am 13.2 12.8 12.3 94 0.5 SW 6 9 3 5 1012.6 1012.6 0.0
16/04:00am 13.0 12.5 12.2 95 0.4 SE 6 7 3 4 1012.6 1012.6 0.0
16/03:30am 12.7 12.1 11.8 94 0.5 SSW 6 9 3 5 1012.7 1012.7 0.0
16/03:00am 12.7 13.2 11.6 93 0.6 CALM 0 0 0 0 1012.7 1012.7 0.0
16/02:30am 12.6 13.1 11.5 93 0.6 CALM 0 0 0 0 1013.1 1013.1 0.0
16/02:00am 12.5 11.7 11.2 92 0.7 SSW 6 6 3 3 1013.1 1013.1 0.0
16/01:30am 12.7 11.9 10.9 89 0.9 WSW 6 7 3 4 1013.6 1013.6 0.0
16/01:00am 13.9 13.2 12.1 89 1.0 WSW 7 13 4 7 1014.1 1014.1 0.0
16/12:30am 14.3 12.2 12.3 88 1.1 ENE 15 24 8 13 1013.7 1013.7 0.0
16/12:20am 14.1 11.2 12.3 89 1.0 ENE 19 24 10 13 1013.6 1013.6 0.0
16/12:00am 14.1 13.7 12.3 89 1.0 NNW 6 7 3 4 1015.7 1015.6 0.0
 
Date/Time
EST
Temp
°C
App
Temp
°C
Dew
Point
Rel
Hum
%
Delta-T
°C
Wind Press
QNH
hPa
Press
MSL
hPa
Rain
since 9 am
mm
Dir
 
Spd
km/h
Gust
km/h
Spd
kts
Gust
kts
15/11:30pm 14.3 15.0 12.3 88 1.1 CALM 0 0 0 0 1015.8 1015.7 0.0
15/11:00pm 14.7 15.5 12.4 86 1.3 CALM 0 0 0 0 1016.0 1015.9 0.0
15/10:30pm 14.9 14.8 12.2 84 1.5 E 4 7 2 4 1015.8 1015.7 0.0
15/10:00pm 14.7 15.3 12.0 84 1.5 CALM 0 0 0 0 1016.1 1016.0 0.0
15/09:30pm 14.4 14.2 11.9 85 1.4 W 4 6 2 3 1016.3 1016.2 0.0
15/09:00pm 14.9 14.2 11.5 80 1.8 WNW 6 6 3 3 1016.5 1016.4 0.0
15/08:30pm 17.3 16.4 12.6 74 2.6 NE 9 22 5 12 1016.2 1016.1 0.0
15/08:00pm 15.3 14.8 11.9 80 1.8 ENE 6 7 3 4 1016.2 1016.1 0.0
15/07:30pm 15.4 14.6 11.8 79 2.0 ENE 7 9 4 5 1016.0 1015.9 0.0
15/07:00pm 15.7 14.9 11.7 77 2.2 E 7 11 4 6 1015.9 1015.8 0.0
15/06:30pm 16.2 14.6 11.6 74 2.5 E 11 15 6 8 1015.5 1015.4 0.0
15/06:00pm 16.7 14.7 11.4 71 2.9 E 13 19 7 10 1015.4 1015.3 0.0
15/05:30pm 17.4 15.3 11.0 66 3.5 ENE 13 20 7 11 1015.1 1015.0 0.0
15/05:00pm 18.2 15.6 10.8 62 4.0 ENE 15 20 8 11 1015.0 1014.9 0.0
15/04:30pm 19.0 16.0 10.8 59 4.5 ENE 17 24 9 13 1014.8 1014.7 0.0
15/04:00pm 19.3 16.1 11.1 59 4.5 ENE 19 26 10 14 1014.7 1014.6 0.0
15/03:30pm 19.7 16.4 11.7 60 4.4 E 20 26 11 14 1014.6 1014.5 0.0
15/03:00pm 19.5 16.3 11.8 61 4.3 E 20 32 11 17 1014.7 1014.6 0.0
15/02:30pm 19.6 16.2 11.4 59 4.5 E 20 30 11 16 1014.8 1014.7 0.0
15/02:00pm 20.0 16.2 11.0 56 4.9 E 22 32 12 17 1014.9 1014.8 0.0
15/01:30pm 20.5 18.2 7.5 43 6.7 E 9 15 5 8 1015.3 1015.2 0.0
15/01:00pm 21.0 19.5 8.3 44 6.7 NW 6 11 3 6 1015.7 1015.6 0.0
15/12:30pm 20.0 18.1 9.0 49 5.8 WNW 9 15 5 8 1016.2 1016.1 0.0
15/12:00pm 19.6 17.7 9.2 51 5.5 NW 9 15 5 8 1016.6 1016.5 0.0

Other Formats:

Comma delimited format used in spreadsheet applications
http://www.bom.gov.au/fwo/IDN60801/IDN60801.95761.axf

JavaScript Object Notation format (JSON) in row-major order
http://www.bom.gov.au/fwo/IDN60801/IDN60801.95761.json